sensor_id;sensor_type;location;lat;lon;timestamp;pressure;altitude;pressure_sealevel;temperature;humidity
18858;BME280;9558;50.178;8.370;2023-09-12T00:00:24;97908.47;;;16.72;100.00
18858;BME280;9558;50.178;8.370;2023-09-12T00:03:11;97896.88;;;16.68;100.00
18858;BME280;9558;50.178;8.370;2023-09-12T00:05:59;97900.50;;;16.67;100.00
18858;BME280;9558;50.178;8.370;2023-09-12T00:08:47;97900.50;;;16.67;100.00
18858;BME280;9558;50.178;8.370;2023-09-12T00:11:34;97901.88;;;16.70;100.00
18858;BME280;9558;50.178;8.370;2023-09-12T00:14:21;97899.03;;;16.71;100.00
18858;BME280;9558;50.178;8.370;2023-09-12T00:17:09;97893.38;;;16.74;100.00
18858;BME280;9558;50.178;8.370;2023-09-12T00:19:55;97892.22;;;16.70;100.00
18858;BME280;9558;50.178;8.370;2023-09-12T00:22:42;97892.44;;;16.69;100.00
18858;BME280;9558;50.178;8.370;2023-09-12T00:25:30;97885.41;;;16.69;100.00
18858;BME280;9558;50.178;8.370;2023-09-12T00:28:17;97888.59;;;16.71;100.00
18858;BME280;9558;50.178;8.370;2023-09-12T00:31:04;97885.53;;;16.74;100.00
18858;BME280;9558;50.178;8.370;2023-09-12T00:33:51;97884.38;;;16.70;100.00
18858;BME280;9558;50.178;8.370;2023-09-12T00:36:37;97882.56;;;16.71;100.00
18858;BME280;9558;50.178;8.370;2023-09-12T00:39:24;97876.41;;;16.65;100.00
18858;BME280;9558;50.178;8.370;2023-09-12T00:42:12;97866.19;;;16.64;100.00
18858;BME280;9558;50.178;8.370;2023-09-12T00:44:59;97870.03;;;16.61;100.00
18858;BME280;9558;50.178;8.370;2023-09-12T00:47:46;97870.59;;;16.63;100.00
18858;BME280;9558;50.178;8.370;2023-09-12T00:50:33;97870.03;;;16.61;100.00
18858;BME280;9558;50.178;8.370;2023-09-12T00:53:21;97861.97;;;16.63;100.00
18858;BME280;9558;50.178;8.370;2023-09-12T00:56:08;97861.19;;;16.62;100.00
18858;BME280;9558;50.178;8.370;2023-09-12T00:58:57;97865.25;;;16.58;100.00
18858;BME280;9558;50.178;8.370;2023-09-12T01:01:44;97856.81;;;16.56;100.00
18858;BME280;9558;50.178;8.370;2023-09-12T01:04:31;97858.88;;;16.54;100.00
18858;BME280;9558;50.178;8.370;2023-09-12T01:07:19;97857.28;;;16.53;100.00
18858;BME280;9558;50.178;8.370;2023-09-12T01:10:07;97855.69;;;16.52;100.00
18858;BME280;9558;50.178;8.370;2023-09-12T01:12:54;97856.94;;;16.49;100.00
18858;BME280;9558;50.178;8.370;2023-09-12T01:15:42;97859.78;;;16.48;100.00
18858;BME280;9558;50.178;8.370;2023-09-12T01:18:29;97849.31;;;16.48;100.00
18858;BME280;9558;50.178;8.370;2023-09-12T01:21:44;97853.38;;;16.44;100.00
18858;BME280;9558;50.178;8.370;2023-09-12T01:25:00;97859.06;;;16.40;100.00
18858;BME280;9558;50.178;8.370;2023-09-12T01:27:55;97861.88;;;16.39;100.00
18858;BME280;9558;50.178;8.370;2023-09-12T01:30:44;97864.13;;;16.35;100.00
18858;BME280;9558;50.178;8.370;2023-09-12T01:33:32;97857.31;;;16.34;100.00
18858;BME280;9558;50.178;8.370;2023-09-12T01:36:18;97858.34;;;16.33;100.00
18858;BME280;9558;50.178;8.370;2023-09-12T01:39:05;97863.56;;;16.33;100.00
18858;BME280;9558;50.178;8.370;2023-09-12T01:41:53;97853.19;;;16.27;100.00
18858;BME280;9558;50.178;8.370;2023-09-12T01:44:43;97860.44;;;16.24;100.00
18858;BME280;9558;50.178;8.370;2023-09-12T01:47:31;97852.81;;;16.23;100.00
18858;BME280;9558;50.178;8.370;2023-09-12T01:50:19;97853.84;;;16.22;100.00
18858;BME280;9558;50.178;8.370;2023-09-12T01:53:06;97850.66;;;16.20;100.00
18858;BME280;9558;50.178;8.370;2023-09-12T01:55:54;97853.25;;;16.20;100.00
18858;BME280;9558;50.178;8.370;2023-09-12T01:58:42;97859.50;;;16.19;100.00
18858;BME280;9558;50.178;8.370;2023-09-12T02:01:30;97851.66;;;16.19;100.00
18858;BME280;9558;50.178;8.370;2023-09-12T02:04:17;97856.53;;;16.15;100.00
18858;BME280;9558;50.178;8.370;2023-09-12T02:07:04;97857.53;;;16.14;100.00
18858;BME280;9558;50.178;8.370;2023-09-12T02:09:50;97859.81;;;16.11;100.00
18858;BME280;9558;50.178;8.370;2023-09-12T02:12:37;97857.19;;;16.11;100.00
18858;BME280;9558;50.178;8.370;2023-09-12T02:15:24;97848.56;;;16.10;100.00
18858;BME280;9558;50.178;8.370;2023-09-12T02:18:12;97851.38;;;16.09;100.00
18858;BME280;9558;50.178;8.370;2023-09-12T02:21:00;97861.81;;;16.09;100.00
18858;BME280;9558;50.178;8.370;2023-09-12T02:23:47;97864.22;;;16.10;100.00
18858;BME280;9558;50.178;8.370;2023-09-12T02:26:33;97856.16;;;16.12;100.00
18858;BME280;9558;50.178;8.370;2023-09-12T02:29:21;97847.38;;;16.06;100.00
18858;BME280;9558;50.178;8.370;2023-09-12T02:32:08;97847.63;;;16.04;100.00
18858;BME280;9558;50.178;8.370;2023-09-12T02:34:56;97843.44;;;16.03;100.00
18858;BME280;9558;50.178;8.370;2023-09-12T02:37:44;97847.84;;;16.03;100.00
18858;BME280;9558;50.178;8.370;2023-09-12T02:40:30;97847.84;;;16.03;100.00
18858;BME280;9558;50.178;8.370;2023-09-12T02:43:17;97848.28;;;16.00;100.00
18858;BME280;9558;50.178;8.370;2023-09-12T02:46:04;97856.31;;;15.98;100.00
18858;BME280;9558;50.178;8.370;2023-09-12T02:48:50;97849.28;;;15.99;100.00
18858;BME280;9558;50.178;8.370;2023-09-12T02:51:39;97851.53;;;15.95;100.00
18858;BME280;9558;50.178;8.370;2023-09-12T02:54:26;97853.56;;;15.93;100.00
18858;BME280;9558;50.178;8.370;2023-09-12T02:57:13;97855.97;;;15.95;100.00
18858;BME280;9558;50.178;8.370;2023-09-12T03:00:00;97853.56;;;15.93;100.00
18858;BME280;9558;50.178;8.370;2023-09-12T03:02:47;97846.75;;;15.92;100.00
18858;BME280;9558;50.178;8.370;2023-09-12T03:05:33;97841.53;;;15.92;100.00
18858;BME280;9558;50.178;8.370;2023-09-12T03:08:21;97838.94;;;15.92;100.00
18858;BME280;9558;50.178;8.370;2023-09-12T03:11:09;97837.09;;;15.93;100.00
18858;BME280;9558;50.178;8.370;2023-09-12T03:13:56;97839.94;;;15.91;100.00
18858;BME280;9558;50.178;8.370;2023-09-12T03:16:42;97840.16;;;15.89;100.00
18858;BME280;9558;50.178;8.370;2023-09-12T03:19:29;97835.16;;;15.88;100.00
18858;BME280;9558;50.178;8.370;2023-09-12T03:22:16;97831.53;;;15.89;100.00
18858;BME280;9558;50.178;8.370;2023-09-12T03:25:05;97830.06;;;15.93;100.00
18858;BME280;9558;50.178;8.370;2023-09-12T03:27:52;97823.84;;;15.94;100.00
18858;BME280;9558;50.178;8.370;2023-09-12T03:30:39;97821.00;;;15.96;100.00
18858;BME280;9558;50.178;8.370;2023-09-12T03:33:25;97815.34;;;15.99;100.00
18858;BME280;9558;50.178;8.370;2023-09-12T03:36:12;97823.41;;;15.97;100.00
18858;BME280;9558;50.178;8.370;2023-09-12T03:38:59;97810.94;;;15.99;100.00
18858;BME280;9558;50.178;8.370;2023-09-12T03:41:47;97818.19;;;15.97;100.00
18858;BME280;9558;50.178;8.370;2023-09-12T03:44:34;97812.19;;;15.97;100.00
18858;BME280;9558;50.178;8.370;2023-09-12T03:47:21;97819.78;;;15.98;100.00
18858;BME280;9558;50.178;8.370;2023-09-12T03:50:08;97816.16;;;15.99;100.00
18858;BME280;9558;50.178;8.370;2023-09-12T03:52:54;97816.94;;;16.00;100.00
18858;BME280;9558;50.178;8.370;2023-09-12T03:55:41;97813.13;;;16.02;100.00
18858;BME280;9558;50.178;8.370;2023-09-12T03:58:30;97813.47;;;16.06;100.00
18858;BME280;9558;50.178;8.370;2023-09-12T04:01:16;97820.66;;;16.11;100.00
18858;BME280;9558;50.178;8.370;2023-09-12T04:04:03;97818.16;;;16.16;100.00
18858;BME280;9558;50.178;8.370;2023-09-12T04:06:50;97812.72;;;16.17;100.00
18858;BME280;9558;50.178;8.370;2023-09-12T04:09:37;97809.69;;;16.20;100.00
18858;BME280;9558;50.178;8.370;2023-09-12T04:12:24;97818.44;;;16.26;100.00
18858;BME280;9558;50.178;8.370;2023-09-12T04:15:12;97817.78;;;16.31;100.00
18858;BME280;9558;50.178;8.370;2023-09-12T04:17:59;97824.97;;;16.35;100.00
18858;BME280;9558;50.178;8.370;2023-09-12T04:20:45;97824.06;;;16.41;100.00
18858;BME280;9558;50.178;8.370;2023-09-12T04:23:32;97829.88;;;16.44;100.00
18858;BME280;9558;50.178;8.370;2023-09-12T04:26:19;97826.59;;;16.48;100.00
18858;BME280;9558;50.178;8.370;2023-09-12T04:29:05;97833.19;;;16.51;100.00
18858;BME280;9558;50.178;8.370;2023-09-12T04:31:53;97821.53;;;16.53;100.00
18858;BME280;9558;50.178;8.370;2023-09-12T04:34:44;97830.28;;;16.59;100.00
18858;BME280;9558;50.178;8.370;2023-09-12T04:37:31;97842.69;;;16.64;100.00
18858;BME280;9558;50.178;8.370;2023-09-12T04:40:18;97834.94;;;16.69;100.00
18858;BME280;9558;50.178;8.370;2023-09-12T04:43:05;97830.66;;;16.74;100.00
18858;BME280;9558;50.178;8.370;2023-09-12T04:45:51;97834.06;;;16.75;100.00
18858;BME280;9558;50.178;8.370;2023-09-12T04:48:40;97834.41;;;16.79;100.00
18858;BME280;9558;50.178;8.370;2023-09-12T04:51:26;97837.16;;;16.84;100.00
18858;BME280;9558;50.178;8.370;2023-09-12T04:54:13;97825.47;;;16.86;100.00
18858;BME280;9558;50.178;8.370;2023-09-12T04:57:00;97828.44;;;16.90;100.00
18858;BME280;9558;50.178;8.370;2023-09-12T04:59:47;97824.22;;;16.89;100.00
18858;BME280;9558;50.178;8.370;2023-09-12T05:02:33;97818.81;;;16.90;100.00
18858;BME280;9558;50.178;8.370;2023-09-12T05:05:21;97814.94;;;16.93;100.00
18858;BME280;9558;50.178;8.370;2023-09-12T05:08:08;97805.84;;;16.96;100.00
18858;BME280;9558;50.178;8.370;2023-09-12T05:10:55;97811.66;;;16.98;100.00
18858;BME280;9558;50.178;8.370;2023-09-12T05:13:42;97808.38;;;17.02;100.00
18858;BME280;9558;50.178;8.370;2023-09-12T05:16:28;97805.53;;;17.04;100.00
18858;BME280;9558;50.178;8.370;2023-09-12T05:19:15;97814.16;;;17.04;100.00
18858;BME280;9558;50.178;8.370;2023-09-12T05:22:03;97818.38;;;17.05;100.00
18858;BME280;9558;50.178;8.370;2023-09-12T05:24:50;97826.78;;;17.07;100.00
18858;BME280;9558;50.178;8.370;2023-09-12T05:27:37;97826.78;;;17.07;100.00
18858;BME280;9558;50.178;8.370;2023-09-12T05:30:24;97833.97;;;17.12;100.00
18858;BME280;9558;50.178;8.370;2023-09-12T05:33:11;97835.31;;;17.15;100.00
18858;BME280;9558;50.178;8.370;2023-09-12T05:35:58;97829.75;;;17.23;100.00
18858;BME280;9558;50.178;8.370;2023-09-12T05:38:46;97830.09;;;17.26;100.00
18858;BME280;9558;50.178;8.370;2023-09-12T05:41:33;97829.28;;;17.26;100.00
18858;BME280;9558;50.178;8.370;2023-09-12T05:44:20;97827.25;;;17.28;100.00
18858;BME280;9558;50.178;8.370;2023-09-12T05:47:06;97825.78;;;17.32;100.00
18858;BME280;9558;50.178;8.370;2023-09-12T05:49:53;97827.94;;;17.35;100.00
18858;BME280;9558;50.178;8.370;2023-09-12T05:52:41;97829.09;;;17.39;100.00
18858;BME280;9558;50.178;8.370;2023-09-12T05:55:29;97820.53;;;17.44;100.00
18858;BME280;9558;50.178;8.370;2023-09-12T05:58:16;97820.44;;;17.51;100.00
18858;BME280;9558;50.178;8.370;2023-09-12T06:01:02;97828.38;;;17.56;100.00
18858;BME280;9558;50.178;8.370;2023-09-12T06:03:49;97831.59;;;17.58;100.00
18858;BME280;9558;50.178;8.370;2023-09-12T06:06:36;97828.28;;;17.62;100.00
18858;BME280;9558;50.178;8.370;2023-09-12T06:09:24;97828.63;;;17.66;100.00
18858;BME280;9558;50.178;8.370;2023-09-12T06:12:12;97838.16;;;17.72;100.00
18858;BME280;9558;50.178;8.370;2023-09-12T06:14:59;97837.25;;;17.78;100.00
18858;BME280;9558;50.178;8.370;2023-09-12T06:17:45;97832.34;;;17.82;100.00
18858;BME280;9558;50.178;8.370;2023-09-12T06:20:32;97828.25;;;17.86;100.00
18858;BME280;9558;50.178;8.370;2023-09-12T06:23:19;97834.63;;;17.90;100.00
18858;BME280;9558;50.178;8.370;2023-09-12T06:26:06;97835.53;;;17.96;100.00
18858;BME280;9558;50.178;8.370;2023-09-12T06:28:54;97833.56;;;18.03;100.00
18858;BME280;9558;50.178;8.370;2023-09-12T06:31:41;97835.84;;;18.11;100.00
18858;BME280;9558;50.178;8.370;2023-09-12T06:34:28;97839.69;;;18.21;100.00
18858;BME280;9558;50.178;8.370;2023-09-12T06:37:14;97838.28;;;18.30;100.00
18858;BME280;9558;50.178;8.370;2023-09-12T06:40:01;97843.72;;;18.40;100.00
18858;BME280;9558;50.178;8.370;2023-09-12T06:42:49;97850.25;;;18.55;100.00
18858;BME280;9558;50.178;8.370;2023-09-12T06:45:37;97843.88;;;18.62;100.00
18858;BME280;9558;50.178;8.370;2023-09-12T06:48:24;97844.03;;;18.73;100.00
18858;BME280;9558;50.178;8.370;2023-09-12T06:51:12;97847.97;;;18.87;100.00
18858;BME280;9558;50.178;8.370;2023-09-12T06:53:58;97832.91;;;19.11;100.00
18858;BME280;9558;50.178;8.370;2023-09-12T06:56:45;97844.94;;;19.63;100.00
18858;BME280;9558;50.178;8.370;2023-09-12T06:59:32;97850.63;;;20.16;100.00
18858;BME280;9558;50.178;8.370;2023-09-12T07:02:21;97857.28;;;20.74;100.00
18858;BME280;9558;50.178;8.370;2023-09-12T07:05:08;97860.22;;;21.42;100.00
18858;BME280;9558;50.178;8.370;2023-09-12T07:07:55;97860.41;;;21.68;100.00
18858;BME280;9558;50.178;8.370;2023-09-12T07:10:44;97863.31;;;22.35;100.00
18858;BME280;9558;50.178;8.370;2023-09-12T07:13:32;97858.13;;;22.86;99.72
18858;BME280;9558;50.178;8.370;2023-09-12T07:16:20;97864.44;;;23.73;96.10
18858;BME280;9558;50.178;8.370;2023-09-12T07:19:08;97861.75;;;24.54;89.75
18858;BME280;9558;50.178;8.370;2023-09-12T07:21:55;97863.53;;;25.38;88.71
18858;BME280;9558;50.178;8.370;2023-09-12T07:24:42;97862.31;;;26.27;84.97
18858;BME280;9558;50.178;8.370;2023-09-12T07:27:29;97860.34;;;27.08;82.33
18858;BME280;9558;50.178;8.370;2023-09-12T07:30:16;97865.22;;;27.81;75.06
18858;BME280;9558;50.178;8.370;2023-09-12T07:33:04;97858.63;;;28.43;67.90
18858;BME280;9558;50.178;8.370;2023-09-12T07:35:53;97863.84;;;29.07;68.50
18858;BME280;9558;50.178;8.370;2023-09-12T07:38:39;97866.16;;;29.63;65.45
18858;BME280;9558;50.178;8.370;2023-09-12T07:41:27;97872.47;;;30.16;66.14
18858;BME280;9558;50.178;8.370;2023-09-12T07:44:14;97860.91;;;30.64;63.63
18858;BME280;9558;50.178;8.370;2023-09-12T07:47:02;97857.28;;;31.04;61.14
18858;BME280;9558;50.178;8.370;2023-09-12T07:49:53;97854.03;;;31.37;52.33
18858;BME280;9558;50.178;8.370;2023-09-12T07:52:41;97864.22;;;31.82;55.82
18858;BME280;9558;50.178;8.370;2023-09-12T07:55:28;97857.41;;;32.24;57.85
18858;BME280;9558;50.178;8.370;2023-09-12T07:58:20;97856.03;;;32.60;56.27
18858;BME280;9558;50.178;8.370;2023-09-12T08:01:07;97861.25;;;32.77;54.03
18858;BME280;9558;50.178;8.370;2023-09-12T08:03:55;97866.00;;;32.93;52.66
18858;BME280;9558;50.178;8.370;2023-09-12T08:06:42;97862.81;;;33.12;53.49
18858;BME280;9558;50.178;8.370;2023-09-12T08:09:48;97858.94;;;33.34;52.14
18858;BME280;9558;50.178;8.370;2023-09-12T08:12:36;97858.97;;;33.46;51.07
18858;BME280;9558;50.178;8.370;2023-09-12T08:15:24;97871.75;;;33.74;50.54
18858;BME280;9558;50.178;8.370;2023-09-12T08:18:14;97876.22;;;33.95;50.07
18858;BME280;9558;50.178;8.370;2023-09-12T08:21:01;97867.00;;;34.20;48.80
18858;BME280;9558;50.178;8.370;2023-09-12T08:23:48;97883.97;;;34.49;47.34
18858;BME280;9558;50.178;8.370;2023-09-12T08:26:36;97873.34;;;34.81;46.26
18858;BME280;9558;50.178;8.370;2023-09-12T08:29:22;97881.66;;;35.20;46.89
18858;BME280;9558;50.178;8.370;2023-09-12T08:32:10;97882.81;;;35.51;46.17
18858;BME280;9558;50.178;8.370;2023-09-12T08:34:56;97881.75;;;35.72;44.81
18858;BME280;9558;50.178;8.370;2023-09-12T08:37:44;97878.63;;;36.02;44.60
18858;BME280;9558;50.178;8.370;2023-09-12T08:40:32;97885.06;;;36.32;43.84
18858;BME280;9558;50.178;8.370;2023-09-12T08:43:22;97882.81;;;36.54;43.05
18858;BME280;9558;50.178;8.370;2023-09-12T08:46:10;97886.19;;;36.71;43.17
18858;BME280;9558;50.178;8.370;2023-09-12T08:48:58;97885.28;;;36.82;42.38
18858;BME280;9558;50.178;8.370;2023-09-12T08:51:45;97893.59;;;36.93;41.52
18858;BME280;9558;50.178;8.370;2023-09-12T08:54:32;97883.44;;;36.87;41.01
18858;BME280;9558;50.178;8.370;2023-09-12T08:57:20;97881.38;;;36.60;41.57
18858;BME280;9558;50.178;8.370;2023-09-12T09:00:10;97883.88;;;36.30;41.73
18858;BME280;9558;50.178;8.370;2023-09-12T09:02:59;97874.47;;;35.88;39.71
18858;BME280;9558;50.178;8.370;2023-09-12T09:05:46;97875.78;;;35.46;42.63
18858;BME280;9558;50.178;8.370;2023-09-12T09:08:34;97880.94;;;34.91;43.04
18858;BME280;9558;50.178;8.370;2023-09-12T09:11:21;97884.34;;;34.35;43.55
18858;BME280;9558;50.178;8.370;2023-09-12T09:14:10;97880.91;;;33.73;43.48
18858;BME280;9558;50.178;8.370;2023-09-12T09:16:58;97883.84;;;33.22;46.03
18858;BME280;9558;50.178;8.370;2023-09-12T09:19:45;97876.88;;;32.75;46.92
18858;BME280;9558;50.178;8.370;2023-09-12T09:22:34;97881.97;;;32.26;47.29
18858;BME280;9558;50.178;8.370;2023-09-12T09:25:21;97885.88;;;31.68;48.36
18858;BME280;9558;50.178;8.370;2023-09-12T09:28:16;97880.97;;;31.23;48.76
18858;BME280;9558;50.178;8.370;2023-09-12T09:31:03;97881.00;;;30.88;49.58
18858;BME280;9558;50.178;8.370;2023-09-12T09:33:54;97877.41;;;30.58;50.45
18858;BME280;9558;50.178;8.370;2023-09-12T09:36:41;97875.16;;;30.33;50.24
18858;BME280;9558;50.178;8.370;2023-09-12T09:39:29;97879.69;;;30.07;50.89
18858;BME280;9558;50.178;8.370;2023-09-12T09:42:16;97869.19;;;29.79;51.51
18858;BME280;9558;50.178;8.370;2023-09-12T09:45:03;97876.84;;;29.63;52.16
18858;BME280;9558;50.178;8.370;2023-09-12T09:47:50;97884.28;;;29.43;52.86
18858;BME280;9558;50.178;8.370;2023-09-12T09:50:38;97881.22;;;29.27;52.83
18858;BME280;9558;50.178;8.370;2023-09-12T09:53:26;97877.50;;;29.14;52.76
18858;BME280;9558;50.178;8.370;2023-09-12T09:56:14;97871.28;;;28.96;53.05
18858;BME280;9558;50.178;8.370;2023-09-12T09:59:01;97872.91;;;28.84;53.38
18858;BME280;9558;50.178;8.370;2023-09-12T10:01:49;97874.97;;;28.64;53.73
18858;BME280;9558;50.178;8.370;2023-09-12T10:04:37;97863.34;;;28.46;54.55
18858;BME280;9558;50.178;8.370;2023-09-12T10:07:27;97863.50;;;28.27;55.22
18858;BME280;9558;50.178;8.370;2023-09-12T10:10:14;97859.88;;;28.09;56.79
18858;BME280;9558;50.178;8.370;2023-09-12T10:13:03;97859.31;;;27.98;56.35
18858;BME280;9558;50.178;8.370;2023-09-12T10:15:50;97863.13;;;27.92;56.27
18858;BME280;9558;50.178;8.370;2023-09-12T10:18:46;97866.38;;;27.89;55.50
18858;BME280;9558;50.178;8.370;2023-09-12T10:21:37;97860.56;;;27.87;56.09
18858;BME280;9558;50.178;8.370;2023-09-12T10:24:30;97851.22;;;27.89;56.98
18858;BME280;9558;50.178;8.370;2023-09-12T10:27:18;97853.59;;;27.91;57.56
18858;BME280;9558;50.178;8.370;2023-09-12T10:30:08;97850.31;;;27.94;57.17
18858;BME280;9558;50.178;8.370;2023-09-12T10:32:56;97845.47;;;27.96;56.56
18858;BME280;9558;50.178;8.370;2023-09-12T10:35:44;97846.19;;;28.02;57.77
18858;BME280;9558;50.178;8.370;2023-09-12T10:38:33;97849.06;;;28.05;57.42
18858;BME280;9558;50.178;8.370;2023-09-12T10:41:24;97852.72;;;28.09;58.21
18858;BME280;9558;50.178;8.370;2023-09-12T10:44:15;97849.91;;;28.15;57.76
18858;BME280;9558;50.178;8.370;2023-09-12T10:47:04;97846.09;;;28.21;57.51
18858;BME280;9558;50.178;8.370;2023-09-12T10:49:51;97837.50;;;28.24;57.04
18858;BME280;9558;50.178;8.370;2023-09-12T10:52:38;97835.91;;;28.23;57.15
18858;BME280;9558;50.178;8.370;2023-09-12T10:55:26;97831.69;;;28.22;57.39
18858;BME280;9558;50.178;8.370;2023-09-12T10:58:15;97828.25;;;28.21;57.54
18858;BME280;9558;50.178;8.370;2023-09-12T11:01:22;97835.03;;;28.14;57.51
18858;BME280;9558;50.178;8.370;2023-09-12T11:04:31;97834.16;;;28.18;57.92
18858;BME280;9558;50.178;8.370;2023-09-12T11:07:44;97833.47;;;28.13;58.17
18858;BME280;9558;50.178;8.370;2023-09-12T11:10:31;97835.03;;;28.14;58.42
18858;BME280;9558;50.178;8.370;2023-09-12T11:13:19;97840.56;;;28.17;58.01
18858;BME280;9558;50.178;8.370;2023-09-12T11:16:10;97838.38;;;28.19;55.91
18858;BME280;9558;50.178;8.370;2023-09-12T11:19:13;97841.91;;;28.28;57.46
18858;BME280;9558;50.178;8.370;2023-09-12T11:22:01;97837.13;;;28.39;56.93
18858;BME280;9558;50.178;8.370;2023-09-12T11:25:16;97843.72;;;28.56;56.68
18858;BME280;9558;50.178;8.370;2023-09-12T11:28:04;97842.41;;;28.67;56.50
18858;BME280;9558;50.178;8.370;2023-09-12T11:31:02;97839.81;;;28.76;56.06
18858;BME280;9558;50.178;8.370;2023-09-12T11:33:49;97835.25;;;28.76;55.63
18858;BME280;9558;50.178;8.370;2023-09-12T11:36:39;97841.19;;;28.73;55.51
18858;BME280;9558;50.178;8.370;2023-09-12T11:39:29;97836.97;;;28.72;55.20
18858;BME280;9558;50.178;8.370;2023-09-12T11:42:16;97839.34;;;28.74;56.15
18858;BME280;9558;50.178;8.370;2023-09-12T11:45:08;97839.69;;;28.81;56.36
18858;BME280;9558;50.178;8.370;2023-09-12T11:47:56;97835.47;;;28.80;57.10
18858;BME280;9558;50.178;8.370;2023-09-12T11:50:49;97837.91;;;28.99;56.99
18858;BME280;9558;50.178;8.370;2023-09-12T11:53:36;97832.53;;;29.13;57.05
18858;BME280;9558;50.178;8.370;2023-09-12T11:56:23;97835.22;;;29.22;55.88
18858;BME280;9558;50.178;8.370;2023-09-12T11:59:10;97835.22;;;29.22;55.31
18858;BME280;9558;50.178;8.370;2023-09-12T12:01:57;97836.22;;;29.26;55.57
18858;BME280;9558;50.178;8.370;2023-09-12T12:04:45;97837.81;;;29.27;56.10
18858;BME280;9558;50.178;8.370;2023-09-12T12:07:32;97834.03;;;29.28;55.51
18858;BME280;9558;50.178;8.370;2023-09-12T12:10:19;97826.94;;;29.23;56.08
18858;BME280;9558;50.178;8.370;2023-09-12T12:13:06;97834.44;;;29.21;56.50
18858;BME280;9558;50.178;8.370;2023-09-12T12:15:57;97830.94;;;29.12;57.04
18858;BME280;9558;50.178;8.370;2023-09-12T12:18:44;97836.09;;;29.08;57.06
18858;BME280;9558;50.178;8.370;2023-09-12T12:21:32;97832.59;;;28.99;56.39
18858;BME280;9558;50.178;8.370;2023-09-12T12:24:19;97832.91;;;28.98;57.49
18858;BME280;9558;50.178;8.370;2023-09-12T12:27:05;97832.22;;;28.92;57.20
18858;BME280;9558;50.178;8.370;2023-09-12T12:29:53;97827.88;;;28.96;57.91
18858;BME280;9558;50.178;8.370;2023-09-12T12:32:40;97825.72;;;28.98;58.32
18858;BME280;9558;50.178;8.370;2023-09-12T12:35:27;97817.22;;;28.96;58.52
18858;BME280;9558;50.178;8.370;2023-09-12T12:38:16;97811.91;;;28.96;58.59
18858;BME280;9558;50.178;8.370;2023-09-12T12:41:02;97813.16;;;28.99;58.59
18858;BME280;9558;50.178;8.370;2023-09-12T12:43:50;97808.59;;;28.99;59.00
18858;BME280;9558;50.178;8.370;2023-09-12T12:46:47;97809.22;;;28.96;58.88
18858;BME280;9558;50.178;8.370;2023-09-12T12:49:38;97810.81;;;28.97;58.92
18858;BME280;9558;50.178;8.370;2023-09-12T12:52:26;97809.72;;;28.98;59.20
18858;BME280;9558;50.178;8.370;2023-09-12T12:55:15;97799.84;;;28.99;58.96
18858;BME280;9558;50.178;8.370;2023-09-12T12:58:03;97798.91;;;29.03;58.80
18858;BME280;9558;50.178;8.370;2023-09-12T13:00:50;97807.09;;;29.07;57.55
18858;BME280;9558;50.178;8.370;2023-09-12T13:03:37;97804.94;;;29.18;58.85
18858;BME280;9558;50.178;8.370;2023-09-12T13:06:24;97796.53;;;29.24;58.45
18858;BME280;9558;50.178;8.370;2023-09-12T13:09:12;97794.69;;;29.34;58.78
18858;BME280;9558;50.178;8.370;2023-09-12T13:12:00;97789.69;;;29.41;59.06
18858;BME280;9558;50.178;8.370;2023-09-12T13:14:47;97783.78;;;29.44;59.08
18858;BME280;9558;50.178;8.370;2023-09-12T13:17:34;97778.59;;;29.47;59.55
18858;BME280;9558;50.178;8.370;2023-09-12T13:20:21;97776.88;;;29.52;59.81
18858;BME280;9558;50.178;8.370;2023-09-12T13:23:08;97778.94;;;29.55;59.96
18858;BME280;9558;50.178;8.370;2023-09-12T13:25:55;97780.50;;;29.56;59.87
18858;BME280;9558;50.178;8.370;2023-09-12T13:28:43;97775.78;;;29.53;59.64
18858;BME280;9558;50.178;8.370;2023-09-12T13:31:30;97771.69;;;29.46;59.52
18858;BME280;9558;50.178;8.370;2023-09-12T13:34:18;97766.97;;;29.43;59.23
18858;BME280;9558;50.178;8.370;2023-09-12T13:37:04;97767.59;;;29.40;59.85
18858;BME280;9558;50.178;8.370;2023-09-12T13:39:51;97777.31;;;29.36;60.05
18858;BME280;9558;50.178;8.370;2023-09-12T13:42:38;97777.78;;;29.29;60.04
18858;BME280;9558;50.178;8.370;2023-09-12T13:45:26;97779.78;;;29.24;60.73
18858;BME280;9558;50.178;8.370;2023-09-12T13:48:13;97778.22;;;29.23;61.33
18858;BME280;9558;50.178;8.370;2023-09-12T13:51:00;97772.88;;;29.23;60.80
18858;BME280;9558;50.178;8.370;2023-09-12T13:53:46;97774.16;;;29.25;61.18
18858;BME280;9558;50.178;8.370;2023-09-12T13:56:39;97767.88;;;29.30;61.17
18858;BME280;9558;50.178;8.370;2023-09-12T13:59:26;97772.28;;;29.35;60.76
18858;BME280;9558;50.178;8.370;2023-09-12T14:02:14;97767.44;;;29.37;60.67
18858;BME280;9558;50.178;8.370;2023-09-12T14:05:01;97766.03;;;29.39;60.87
18858;BME280;9558;50.178;8.370;2023-09-12T14:07:48;97767.78;;;29.44;61.14
18858;BME280;9558;50.178;8.370;2023-09-12T14:10:35;97758.34;;;29.46;61.41
18858;BME280;9558;50.178;8.370;2023-09-12T14:13:22;97759.31;;;29.51;61.16
18858;BME280;9558;50.178;8.370;2023-09-12T14:16:08;97752.25;;;29.55;60.96
18858;BME280;9558;50.178;8.370;2023-09-12T14:18:57;97761.22;;;29.59;61.04
18858;BME280;9558;50.178;8.370;2023-09-12T14:21:43;97760.59;;;29.62;60.85
18858;BME280;9558;50.178;8.370;2023-09-12T14:24:30;97751.97;;;29.65;60.57
18858;BME280;9558;50.178;8.370;2023-09-12T14:27:17;97745.53;;;29.66;60.23
18858;BME280;9558;50.178;8.370;2023-09-12T14:30:05;97750.25;;;29.69;60.08
18858;BME280;9558;50.178;8.370;2023-09-12T14:32:52;97750.75;;;29.71;59.94
18858;BME280;9558;50.178;8.370;2023-09-12T14:35:41;97748.38;;;29.70;59.87
18858;BME280;9558;50.178;8.370;2023-09-12T14:38:28;97749.16;;;29.70;60.03
18858;BME280;9558;50.178;8.370;2023-09-12T14:41:14;97737.53;;;29.66;60.05
18858;BME280;9558;50.178;8.370;2023-09-12T14:44:01;97738.50;;;29.61;59.82
18858;BME280;9558;50.178;8.370;2023-09-12T14:46:48;97739.44;;;29.57;59.66
18858;BME280;9558;50.178;8.370;2023-09-12T14:49:35;97733.91;;;29.53;59.69
18858;BME280;9558;50.178;8.370;2023-09-12T14:52:23;97734.38;;;29.46;60.06
18858;BME280;9558;50.178;8.370;2023-09-12T14:55:11;97732.47;;;29.38;60.20